sensor_id;sensor_type;location;lat;lon;timestamp;pressure;altitude;pressure_sealevel;temperature;humidity
12203;BME280;6164;42.178;24.622;2023-12-14T00:00:15;99023.47;;;2.84;100.00
12203;BME280;6164;42.178;24.622;2023-12-14T00:02:43;99017.59;;;2.91;100.00
12203;BME280;6164;42.178;24.622;2023-12-14T00:05:10;99011.97;;;2.86;100.00
12203;BME280;6164;42.178;24.622;2023-12-14T00:07:38;99023.53;;;2.93;100.00
12203;BME280;6164;42.178;24.622;2023-12-14T00:10:05;99006.34;;;2.81;100.00
12203;BME280;6164;42.178;24.622;2023-12-14T00:12:34;99026.13;;;2.93;100.00
12203;BME280;6164;42.178;24.622;2023-12-14T00:15:00;99024.72;;;2.89;100.00
12203;BME280;6164;42.178;24.622;2023-12-14T00:17:27;99019.78;;;2.86;100.00
12203;BME280;6164;42.178;24.622;2023-12-14T00:19:53;99025.84;;;2.96;100.00
12203;BME280;6164;42.178;24.622;2023-12-14T00:22:20;99028.19;;;2.99;100.00
12203;BME280;6164;42.178;24.622;2023-12-14T00:24:48;99018.97;;;2.86;100.00
12203;BME280;6164;42.178;24.622;2023-12-14T00:27:15;99029.66;;;2.92;100.00
12203;BME280;6164;42.178;24.622;2023-12-14T00:29:41;99036.63;;;2.82;100.00
12203;BME280;6164;42.178;24.622;2023-12-14T00:32:08;99041.44;;;2.77;100.00
12203;BME280;6164;42.178;24.622;2023-12-14T00:34:34;99051.34;;;2.83;100.00
12203;BME280;6164;42.178;24.622;2023-12-14T00:37:01;99026.22;;;2.82;100.00
12203;BME280;6164;42.178;24.622;2023-12-14T00:39:28;99032.81;;;2.86;100.00
12203;BME280;6164;42.178;24.622;2023-12-14T00:41:56;99022.13;;;2.89;100.00
12203;BME280;6164;42.178;24.622;2023-12-14T00:44:23;99033.69;;;2.96;100.00
12203;BME280;6164;42.178;24.622;2023-12-14T00:46:49;99038.47;;;3.01;100.00
12203;BME280;6164;42.178;24.622;2023-12-14T00:49:16;99039.16;;;3.03;100.00
12203;BME280;6164;42.178;24.622;2023-12-14T00:51:43;99042.72;;;3.02;100.00
12203;BME280;6164;42.178;24.622;2023-12-14T00:54:10;99022.97;;;2.99;100.00
12203;BME280;6164;42.178;24.622;2023-12-14T00:56:36;99028.88;;;3.01;100.00
12203;BME280;6164;42.178;24.622;2023-12-14T00:59:04;99025.31;;;3.02;100.00
12203;BME280;6164;42.178;24.622;2023-12-14T01:01:31;99022.69;;;3.02;100.00
12203;BME280;6164;42.178;24.622;2023-12-14T01:03:58;99023.66;;;3.01;100.00
12203;BME280;6164;42.178;24.622;2023-12-14T01:06:25;98996.91;;;2.99;100.00
12203;BME280;6164;42.178;24.622;2023-12-14T01:08:51;99004.59;;;3.01;100.00
12203;BME280;6164;42.178;24.622;2023-12-14T01:11:18;99009.66;;;2.93;100.00
12203;BME280;6164;42.178;24.622;2023-12-14T01:13:45;98993.03;;;2.94;100.00
12203;BME280;6164;42.178;24.622;2023-12-14T01:16:13;98995.50;;;2.95;100.00
12203;BME280;6164;42.178;24.622;2023-12-14T01:18:40;99011.72;;;2.99;100.00
12203;BME280;6164;42.178;24.622;2023-12-14T01:21:06;99011.84;;;2.97;100.00
12203;BME280;6164;42.178;24.622;2023-12-14T01:23:33;99002.38;;;2.96;100.00
12203;BME280;6164;42.178;24.622;2023-12-14T01:25:59;99000.56;;;2.87;100.00
12203;BME280;6164;42.178;24.622;2023-12-14T01:28:26;98991.69;;;2.90;100.00
12203;BME280;6164;42.178;24.622;2023-12-14T01:30:53;98993.03;;;2.84;100.00
12203;BME280;6164;42.178;24.622;2023-12-14T01:33:21;98990.69;;;2.72;100.00
12203;BME280;6164;42.178;24.622;2023-12-14T01:35:47;99008.63;;;2.65;100.00
12203;BME280;6164;42.178;24.622;2023-12-14T01:38:14;98983.25;;;2.67;100.00
12203;BME280;6164;42.178;24.622;2023-12-14T01:40:40;98994.09;;;2.72;100.00
12203;BME280;6164;42.178;24.622;2023-12-14T01:43:08;98981.19;;;2.70;100.00
12203;BME280;6164;42.178;24.622;2023-12-14T01:45:35;98990.69;;;2.72;100.00
12203;BME280;6164;42.178;24.622;2023-12-14T01:48:02;98985.19;;;2.75;100.00
12203;BME280;6164;42.178;24.622;2023-12-14T01:50:30;98993.00;;;2.65;100.00
12203;BME280;6164;42.178;24.622;2023-12-14T01:52:57;98981.59;;;2.56;100.00
12203;BME280;6164;42.178;24.622;2023-12-14T01:55:23;98966.31;;;2.42;100.00
12203;BME280;6164;42.178;24.622;2023-12-14T01:57:51;98978.41;;;2.53;100.00
12203;BME280;6164;42.178;24.622;2023-12-14T02:00:19;98988.56;;;2.56;100.00
12203;BME280;6164;42.178;24.622;2023-12-14T02:02:48;98971.81;;;2.49;100.00
12203;BME280;6164;42.178;24.622;2023-12-14T02:05:15;98999.94;;;2.45;100.00
12203;BME280;6164;42.178;24.622;2023-12-14T02:07:43;98989.28;;;2.28;100.00
12203;BME280;6164;42.178;24.622;2023-12-14T02:10:10;98998.50;;;2.32;100.00
12203;BME280;6164;42.178;24.622;2023-12-14T02:12:36;99003.13;;;2.28;100.00
12203;BME280;6164;42.178;24.622;2023-12-14T02:15:03;98982.31;;;2.28;100.00
12203;BME280;6164;42.178;24.622;2023-12-14T02:17:30;98990.44;;;2.14;100.00
12203;BME280;6164;42.178;24.622;2023-12-14T02:19:57;99003.41;;;2.25;100.00
12203;BME280;6164;42.178;24.622;2023-12-14T02:22:25;98967.13;;;2.33;100.00
12203;BME280;6164;42.178;24.622;2023-12-14T02:24:53;99007.81;;;2.34;100.00
12203;BME280;6164;42.178;24.622;2023-12-14T02:27:20;98978.13;;;2.16;100.00
12203;BME280;6164;42.178;24.622;2023-12-14T02:29:46;99008.22;;;2.30;100.00
12203;BME280;6164;42.178;24.622;2023-12-14T02:32:13;98994.66;;;2.36;100.00
12203;BME280;6164;42.178;24.622;2023-12-14T02:34:39;99003.47;;;2.44;100.00
12203;BME280;6164;42.178;24.622;2023-12-14T02:37:06;98985.91;;;2.37;100.00
12203;BME280;6164;42.178;24.622;2023-12-14T02:39:33;98991.28;;;2.45;100.00
12203;BME280;6164;42.178;24.622;2023-12-14T02:42:01;98989.25;;;2.48;100.00
12203;BME280;6164;42.178;24.622;2023-12-14T02:44:27;98986.22;;;2.53;100.00
12203;BME280;6164;42.178;24.622;2023-12-14T02:46:54;98986.66;;;2.58;100.00
12203;BME280;6164;42.178;24.622;2023-12-14T02:49:21;98991.47;;;2.62;100.00
12203;BME280;6164;42.178;24.622;2023-12-14T02:51:47;98986.66;;;2.58;100.00
12203;BME280;6164;42.178;24.622;2023-12-14T02:54:14;98986.66;;;2.58;100.00
12203;BME280;6164;42.178;24.622;2023-12-14T02:56:40;99001.06;;;2.62;100.00
12203;BME280;6164;42.178;24.622;2023-12-14T02:59:08;98994.22;;;2.61;100.00
12203;BME280;6164;42.178;24.622;2023-12-14T03:01:35;99002.03;;;2.61;100.00
12203;BME280;6164;42.178;24.622;2023-12-14T03:04:02;99003.78;;;2.60;100.00
12203;BME280;6164;42.178;24.622;2023-12-14T03:06:28;98978.03;;;2.67;100.00
12203;BME280;6164;42.178;24.622;2023-12-14T03:08:55;98979.00;;;2.66;100.00
12203;BME280;6164;42.178;24.622;2023-12-14T03:11:22;98986.09;;;2.54;100.00
12203;BME280;6164;42.178;24.622;2023-12-14T03:13:49;98992.28;;;2.53;100.00
12203;BME280;6164;42.178;24.622;2023-12-14T03:16:17;98980.84;;;2.35;100.00
12203;BME280;6164;42.178;24.622;2023-12-14T03:18:44;99000.28;;;2.31;100.00
12203;BME280;6164;42.178;24.622;2023-12-14T03:21:10;98986.81;;;2.26;100.00
12203;BME280;6164;42.178;24.622;2023-12-14T03:23:37;98997.50;;;2.23;100.00
12203;BME280;6164;42.178;24.622;2023-12-14T03:26:04;98986.50;;;2.20;100.00
12203;BME280;6164;42.178;24.622;2023-12-14T03:28:30;98992.44;;;2.22;100.00
12203;BME280;6164;42.178;24.622;2023-12-14T03:30:57;98983.16;;;2.29;100.00
12203;BME280;6164;42.178;24.622;2023-12-14T03:33:25;98997.25;;;2.36;100.00
12203;BME280;6164;42.178;24.622;2023-12-14T03:35:52;98991.78;;;2.39;100.00
12203;BME280;6164;42.178;24.622;2023-12-14T03:38:18;98998.25;;;2.44;100.00
12203;BME280;6164;42.178;24.622;2023-12-14T03:40:45;98990.19;;;2.47;100.00
12203;BME280;6164;42.178;24.622;2023-12-14T03:43:11;98981.16;;;2.51;100.00
12203;BME280;6164;42.178;24.622;2023-12-14T03:45:38;98991.88;;;2.58;100.00
12203;BME280;6164;42.178;24.622;2023-12-14T03:48:05;98979.69;;;2.58;100.00
12203;BME280;6164;42.178;24.622;2023-12-14T03:50:33;98990.44;;;2.44;100.00
12203;BME280;6164;42.178;24.622;2023-12-14T03:52:59;98974.13;;;2.42;100.00
12203;BME280;6164;42.178;24.622;2023-12-14T03:55:26;98983.91;;;2.50;100.00
12203;BME280;6164;42.178;24.622;2023-12-14T03:57:53;98988.84;;;2.53;100.00
12203;BME280;6164;42.178;24.622;2023-12-14T04:00:19;98995.81;;;2.52;100.00
12203;BME280;6164;42.178;24.622;2023-12-14T04:02:46;98985.25;;;2.54;100.00
12203;BME280;6164;42.178;24.622;2023-12-14T04:05:13;98984.19;;;2.56;100.00
12203;BME280;6164;42.178;24.622;2023-12-14T04:07:41;98992.28;;;2.63;100.00
12203;BME280;6164;42.178;24.622;2023-12-14T04:10:08;98995.31;;;2.58;100.00
12203;BME280;6164;42.178;24.622;2023-12-14T04:12:35;99002.94;;;2.50;100.00
12203;BME280;6164;42.178;24.622;2023-12-14T04:15:02;98984.09;;;2.37;100.00
12203;BME280;6164;42.178;24.622;2023-12-14T04:17:29;98992.19;;;2.34;100.00
12203;BME280;6164;42.178;24.622;2023-12-14T04:19:56;98983.69;;;2.32;100.00
12203;BME280;6164;42.178;24.622;2023-12-14T04:22:23;98988.59;;;2.26;100.00
12203;BME280;6164;42.178;24.622;2023-12-14T04:24:51;98983.78;;;2.21;100.00
12203;BME280;6164;42.178;24.622;2023-12-14T04:27:18;98990.84;;;2.10;100.00
12203;BME280;6164;42.178;24.622;2023-12-14T04:29:45;98967.41;;;2.10;100.00
12203;BME280;6164;42.178;24.622;2023-12-14T04:32:13;98972.22;;;2.14;100.00
12203;BME280;6164;42.178;24.622;2023-12-14T04:34:40;98966.22;;;2.14;100.00
12203;BME280;6164;42.178;24.622;2023-12-14T04:37:07;98978.97;;;2.17;100.00
12203;BME280;6164;42.178;24.622;2023-12-14T04:39:33;98980.31;;;2.11;100.00
12203;BME280;6164;42.178;24.622;2023-12-14T04:42:01;98984.38;;;2.04;100.00
12203;BME280;6164;42.178;24.622;2023-12-14T04:44:28;98972.19;;;2.05;100.00
12203;BME280;6164;42.178;24.622;2023-12-14T04:46:55;98969.19;;;2.09;100.00
12203;BME280;6164;42.178;24.622;2023-12-14T04:49:21;98979.25;;;2.14;100.00
12203;BME280;6164;42.178;24.622;2023-12-14T04:51:48;98970.75;;;2.21;100.00
12203;BME280;6164;42.178;24.622;2023-12-14T04:54:15;98968.84;;;2.23;100.00
12203;BME280;6164;42.178;24.622;2023-12-14T04:56:41;98957.34;;;2.26;100.00
12203;BME280;6164;42.178;24.622;2023-12-14T04:59:11;98956.41;;;2.27;100.00
12203;BME280;6164;42.178;24.622;2023-12-14T05:01:37;98956.13;;;2.30;100.00
12203;BME280;6164;42.178;24.622;2023-12-14T05:04:04;98963.25;;;2.28;100.00
12203;BME280;6164;42.178;24.622;2023-12-14T05:06:30;98973.50;;;2.20;100.00
12203;BME280;6164;42.178;24.622;2023-12-14T05:08:58;98952.34;;;2.04;100.00
12203;BME280;6164;42.178;24.622;2023-12-14T05:11:26;98964.13;;;2.08;100.00
12203;BME280;6164;42.178;24.622;2023-12-14T05:13:53;98961.28;;;2.11;100.00
12203;BME280;6164;42.178;24.622;2023-12-14T05:16:21;98964.56;;;2.13;100.00
12203;BME280;6164;42.178;24.622;2023-12-14T05:18:51;98941.66;;;2.07;100.00
12203;BME280;6164;42.178;24.622;2023-12-14T05:21:18;98961.91;;;2.03;100.00
12203;BME280;6164;42.178;24.622;2023-12-14T05:23:44;98971.19;;;1.96;100.00
12203;BME280;6164;42.178;24.622;2023-12-14T05:26:11;98957.81;;;2.01;100.00
12203;BME280;6164;42.178;24.622;2023-12-14T05:28:38;98968.75;;;2.04;100.00
12203;BME280;6164;42.178;24.622;2023-12-14T05:31:05;98969.97;;;2.00;100.00
12203;BME280;6164;42.178;24.622;2023-12-14T05:33:33;98994.56;;;2.07;100.00
12203;BME280;6164;42.178;24.622;2023-12-14T05:36:02;98970.28;;;2.07;100.00
12203;BME280;6164;42.178;24.622;2023-12-14T05:38:34;98978.53;;;2.12;100.00
12203;BME280;6164;42.178;24.622;2023-12-14T05:41:00;98972.75;;;2.08;100.00
12203;BME280;6164;42.178;24.622;2023-12-14T05:43:27;98979.25;;;2.14;100.00
12203;BME280;6164;42.178;24.622;2023-12-14T05:45:56;98979.72;;;2.08;100.00
12203;BME280;6164;42.178;24.622;2023-12-14T05:48:23;98989.50;;;2.15;100.00
12203;BME280;6164;42.178;24.622;2023-12-14T05:50:53;98984.03;;;2.18;100.00
12203;BME280;6164;42.178;24.622;2023-12-14T05:53:20;98978.00;;;2.18;100.00
12203;BME280;6164;42.178;24.622;2023-12-14T05:55:46;98993.25;;;2.22;100.00
12203;BME280;6164;42.178;24.622;2023-12-14T05:58:13;98995.03;;;2.22;100.00
12203;BME280;6164;42.178;24.622;2023-12-14T06:00:40;98998.03;;;2.17;100.00
12203;BME280;6164;42.178;24.622;2023-12-14T06:03:07;99008.13;;;2.11;100.00
12203;BME280;6164;42.178;24.622;2023-12-14T06:05:33;98996.22;;;2.18;100.00
12203;BME280;6164;42.178;24.622;2023-12-14T06:08:01;99005.44;;;2.22;100.00
12203;BME280;6164;42.178;24.622;2023-12-14T06:10:28;99009.41;;;2.26;100.00
12203;BME280;6164;42.178;24.622;2023-12-14T06:12:55;99016.59;;;2.33;100.00
12203;BME280;6164;42.178;24.622;2023-12-14T06:15:22;99010.69;;;2.31;100.00
12203;BME280;6164;42.178;24.622;2023-12-14T06:17:48;99004.50;;;2.32;100.00
12203;BME280;6164;42.178;24.622;2023-12-14T06:20:15;99002.09;;;2.40;100.00
12203;BME280;6164;42.178;24.622;2023-12-14T06:22:42;99007.31;;;2.40;100.00
12203;BME280;6164;42.178;24.622;2023-12-14T06:25:10;99014.81;;;2.34;100.00
12203;BME280;6164;42.178;24.622;2023-12-14T06:27:36;99008.88;;;2.22;100.00
12203;BME280;6164;42.178;24.622;2023-12-14T06:30:03;99008.03;;;2.22;100.00
12203;BME280;6164;42.178;24.622;2023-12-14T06:32:30;99025.53;;;2.10;100.00
12203;BME280;6164;42.178;24.622;2023-12-14T06:34:57;99015.38;;;2.07;100.00
12203;BME280;6164;42.178;24.622;2023-12-14T06:37:23;99016.41;;;1.95;100.00
12203;BME280;6164;42.178;24.622;2023-12-14T06:39:50;99012.91;;;2.06;100.00
12203;BME280;6164;42.178;24.622;2023-12-14T06:42:18;99029.50;;;2.14;100.00
12203;BME280;6164;42.178;24.622;2023-12-14T06:44:45;99039.38;;;2.11;100.00
12203;BME280;6164;42.178;24.622;2023-12-14T06:47:11;99016.63;;;2.13;100.00
12203;BME280;6164;42.178;24.622;2023-12-14T06:49:38;99022.41;;;2.16;100.00
12203;BME280;6164;42.178;24.622;2023-12-14T06:52:06;99036.25;;;2.17;100.00
12203;BME280;6164;42.178;24.622;2023-12-14T06:54:33;99033.78;;;2.15;100.00
12203;BME280;6164;42.178;24.622;2023-12-14T06:56:59;99023.41;;;2.25;100.00
12203;BME280;6164;42.178;24.622;2023-12-14T06:59:27;99014.81;;;2.34;100.00
12203;BME280;6164;42.178;24.622;2023-12-14T07:01:54;99026.19;;;2.33;100.00
12203;BME280;6164;42.178;24.622;2023-12-14T07:04:20;99011.41;;;2.43;100.00
12203;BME280;6164;42.178;24.622;2023-12-14T07:06:50;99009.81;;;2.51;100.00
12203;BME280;6164;42.178;24.622;2023-12-14T07:09:16;99014.34;;;2.59;100.00
12203;BME280;6164;42.178;24.622;2023-12-14T07:11:43;99033.00;;;2.64;100.00
12203;BME280;6164;42.178;24.622;2023-12-14T07:14:10;99017.53;;;2.62;100.00
12203;BME280;6164;42.178;24.622;2023-12-14T07:16:38;99027.09;;;2.62;100.00
12203;BME280;6164;42.178;24.622;2023-12-14T07:19:04;99028.66;;;2.64;100.00
12203;BME280;6164;42.178;24.622;2023-12-14T07:21:31;99036.47;;;2.64;100.00
12203;BME280;6164;42.178;24.622;2023-12-14T07:23:58;99027.41;;;2.68;100.00
12203;BME280;6164;42.178;24.622;2023-12-14T07:26:25;99016.19;;;2.68;100.00
12203;BME280;6164;42.178;24.622;2023-12-14T07:28:53;99016.47;;;2.75;100.00
12203;BME280;6164;42.178;24.622;2023-12-14T07:31:19;99037.06;;;2.87;100.00
12203;BME280;6164;42.178;24.622;2023-12-14T07:33:47;99026.13;;;2.93;100.00
12203;BME280;6164;42.178;24.622;2023-12-14T07:36:14;99043.41;;;3.04;100.00
12203;BME280;6164;42.178;24.622;2023-12-14T07:38:41;99035.88;;;3.10;100.00
12203;BME280;6164;42.178;24.622;2023-12-14T07:41:07;99036.84;;;3.19;100.00
12203;BME280;6164;42.178;24.622;2023-12-14T07:43:34;99047.97;;;3.21;100.00
12203;BME280;6164;42.178;24.622;2023-12-14T07:46:01;99058.00;;;3.25;100.00
12203;BME280;6164;42.178;24.622;2023-12-14T07:48:27;99053.34;;;3.29;100.00
12203;BME280;6164;42.178;24.622;2023-12-14T07:50:56;99053.91;;;3.32;100.00
12203;BME280;6164;42.178;24.622;2023-12-14T07:53:23;99062.97;;;3.47;100.00
12203;BME280;6164;42.178;24.622;2023-12-14T07:55:49;99069.44;;;3.62;100.00
12203;BME280;6164;42.178;24.622;2023-12-14T07:58:16;99070.66;;;3.68;100.00
12203;BME280;6164;42.178;24.622;2023-12-14T08:00:43;99064.78;;;3.75;100.00
12203;BME280;6164;42.178;24.622;2023-12-14T08:03:09;99055.00;;;3.87;100.00
12203;BME280;6164;42.178;24.622;2023-12-14T08:05:36;99056.78;;;3.96;100.00
12203;BME280;6164;42.178;24.622;2023-12-14T08:08:04;99065.69;;;4.03;100.00
12203;BME280;6164;42.178;24.622;2023-12-14T08:10:31;99069.13;;;4.13;100.00
12203;BME280;6164;42.178;24.622;2023-12-14T08:12:57;99052.03;;;4.28;100.00
12203;BME280;6164;42.178;24.622;2023-12-14T08:15:24;99051.72;;;4.41;100.00
12203;BME280;6164;42.178;24.622;2023-12-14T08:17:51;99056.88;;;4.60;100.00
12203;BME280;6164;42.178;24.622;2023-12-14T08:20:17;99056.56;;;4.72;100.00
12203;BME280;6164;42.178;24.622;2023-12-14T08:22:44;99055.09;;;4.87;100.00
12203;BME280;6164;42.178;24.622;2023-12-14T08:25:12;99042.50;;;5.00;100.00
12203;BME280;6164;42.178;24.622;2023-12-14T08:27:40;99050.81;;;5.13;100.00
12203;BME280;6164;42.178;24.622;2023-12-14T08:30:07;99038.75;;;5.30;100.00
12203;BME280;6164;42.178;24.622;2023-12-14T08:32:34;99044.13;;;5.46;100.00
12203;BME280;6164;42.178;24.622;2023-12-14T08:35:00;99044.56;;;5.59;100.00
12203;BME280;6164;42.178;24.622;2023-12-14T08:37:27;99047.72;;;5.63;100.00
12203;BME280;6164;42.178;24.622;2023-12-14T08:39:54;99046.38;;;5.76;100.00
12203;BME280;6164;42.178;24.622;2023-12-14T08:42:22;99040.38;;;5.84;100.00
12203;BME280;6164;42.178;24.622;2023-12-14T08:44:48;99043.00;;;5.84;100.00
12203;BME280;6164;42.178;24.622;2023-12-14T08:47:15;99042.03;;;5.67;100.00
12203;BME280;6164;42.178;24.622;2023-12-14T08:49:42;99053.31;;;5.68;100.00
12203;BME280;6164;42.178;24.622;2023-12-14T08:52:08;99037.63;;;5.68;100.00
12203;BME280;6164;42.178;24.622;2023-12-14T08:54:36;99037.00;;;5.74;100.00
12203;BME280;6164;42.178;24.622;2023-12-14T08:57:03;99045.63;;;5.84;100.00
12203;BME280;6164;42.178;24.622;2023-12-14T08:59:31;99048.84;;;5.95;100.00
12203;BME280;6164;42.178;24.622;2023-12-14T09:01:58;99048.09;;;6.03;100.00
12203;BME280;6164;42.178;24.622;2023-12-14T09:04:24;99033.69;;;6.07;100.00
12203;BME280;6164;42.178;24.622;2023-12-14T09:06:51;99027.97;;;6.11;100.00
12203;BME280;6164;42.178;24.622;2023-12-14T09:09:18;99023.22;;;6.32;100.00
12203;BME280;6164;42.178;24.622;2023-12-14T09:11:45;99020.38;;;6.51;100.00
12203;BME280;6164;42.178;24.622;2023-12-14T09:14:11;99012.91;;;6.72;100.00
12203;BME280;6164;42.178;24.622;2023-12-14T09:16:40;99018.22;;;6.89;100.00
12203;BME280;6164;42.178;24.622;2023-12-14T09:19:06;99002.03;;;7.01;100.00
12203;BME280;6164;42.178;24.622;2023-12-14T09:21:33;99007.13;;;7.11;100.00
12203;BME280;6164;42.178;24.622;2023-12-14T09:23:59;98987.81;;;7.28;100.00
12203;BME280;6164;42.178;24.622;2023-12-14T09:26:26;98987.50;;;7.39;100.00
12203;BME280;6164;42.178;24.622;2023-12-14T09:28:53;98986.19;;;7.51;100.00
12203;BME280;6164;42.178;24.622;2023-12-14T09:31:20;98977.31;;;7.68;100.00
12203;BME280;6164;42.178;24.622;2023-12-14T09:33:48;98971.75;;;7.79;100.00
12203;BME280;6164;42.178;24.622;2023-12-14T09:36:14;98962.53;;;7.91;100.00
12203;BME280;6164;42.178;24.622;2023-12-14T09:38:41;98948.88;;;8.03;100.00
12203;BME280;6164;42.178;24.622;2023-12-14T09:41:07;98945.22;;;8.13;100.00
12203;BME280;6164;42.178;24.622;2023-12-14T09:43:34;98939.94;;;8.21;100.00
12203;BME280;6164;42.178;24.622;2023-12-14T09:46:01;98925.00;;;8.29;100.00
12203;BME280;6164;42.178;24.622;2023-12-14T09:48:28;98907.03;;;8.41;100.00
12203;BME280;6164;42.178;24.622;2023-12-14T09:50:56;98922.13;;;8.55;100.00
12203;BME280;6164;42.178;24.622;2023-12-14T09:53:23;98918.44;;;8.64;100.00
12203;BME280;6164;42.178;24.622;2023-12-14T09:55:49;98916.53;;;8.80;100.00
12203;BME280;6164;42.178;24.622;2023-12-14T09:58:16;98915.16;;;8.92;100.00
12203;BME280;6164;42.178;24.622;2023-12-14T10:00:43;98917.38;;;9.03;100.00
12203;BME280;6164;42.178;24.622;2023-12-14T10:03:20;98913.47;;;9.22;100.00
12203;BME280;6164;42.178;24.622;2023-12-14T10:05:47;98900.91;;;9.32;100.00
12203;BME280;6164;42.178;24.622;2023-12-14T10:08:15;98899.34;;;9.38;100.00
12203;BME280;6164;42.178;24.622;2023-12-14T10:10:42;98898.94;;;9.49;100.00
12203;BME280;6164;42.178;24.622;2023-12-14T10:13:09;98893.69;;;9.63;100.00
12203;BME280;6164;42.178;24.622;2023-12-14T10:15:42;98890.25;;;9.77;100.00
12203;BME280;6164;42.178;24.622;2023-12-14T10:18:08;98874.81;;;9.89;100.00
12203;BME280;6164;42.178;24.622;2023-12-14T10:20:35;98873.38;;;10.01;100.00
12203;BME280;6164;42.178;24.622;2023-12-14T10:23:03;98862.19;;;10.13;100.00
12203;BME280;6164;42.178;24.622;2023-12-14T10:25:31;98854.75;;;10.17;100.00
12203;BME280;6164;42.178;24.622;2023-12-14T10:27:58;98851.66;;;10.28;100.00
12203;BME280;6164;42.178;24.622;2023-12-14T10:30:27;98850.09;;;10.33;100.00
12203;BME280;6164;42.178;24.622;2023-12-14T10:32:55;98849.25;;;10.33;100.00
12203;BME280;6164;42.178;24.622;2023-12-14T10:35:22;98838.06;;;10.45;100.00
12203;BME280;6164;42.178;24.622;2023-12-14T10:37:49;98845.59;;;10.48;100.00
12203;BME280;6164;42.178;24.622;2023-12-14T10:40:16;98854.16;;;10.50;100.00
12203;BME280;6164;42.178;24.622;2023-12-14T10:42:44;98845.31;;;10.58;100.00
12203;BME280;6164;42.178;24.622;2023-12-14T10:45:12;98859.41;;;10.65;100.00
12203;BME280;6164;42.178;24.622;2023-12-14T10:47:42;98853.28;;;10.64;100.00
12203;BME280;6164;42.178;24.622;2023-12-14T10:50:09;98858.03;;;10.54;100.00
12203;BME280;6164;42.178;24.622;2023-12-14T10:52:36;98853.84;;;10.60;100.00
12203;BME280;6164;42.178;24.622;2023-12-14T10:55:05;98839.66;;;10.61;100.00
12203;BME280;6164;42.178;24.622;2023-12-14T10:57:33;98835.81;;;10.63;100.00
12203;BME280;6164;42.178;24.622;2023-12-14T11:00:02;98849.09;;;10.70;100.00
12203;BME280;6164;42.178;24.622;2023-12-14T11:02:30;98858.59;;;10.50;100.00
12203;BME280;6164;42.178;24.622;2023-12-14T11:04:57;98845.09;;;10.59;100.00
12203;BME280;6164;42.178;24.622;2023-12-14T11:07:43;98836.03;;;10.62;100.00
12203;BME280;6164;42.178;24.622;2023-12-14T11:10:10;98843.53;;;10.44;100.00
12203;BME280;6164;42.178;24.622;2023-12-14T11:12:37;98857.72;;;10.28;100.00
12203;BME280;6164;42.178;24.622;2023-12-14T11:15:06;98848.84;;;10.15;100.00
12203;BME280;6164;42.178;24.622;2023-12-14T11:17:35;98846.25;;;10.07;100.00
12203;BME280;6164;42.178;24.622;2023-12-14T11:22:42;98827.72;;;10.00;100.00
12203;BME280;6164;42.178;24.622;2023-12-14T11:25:10;98838.81;;;9.96;100.00
12203;BME280;6164;42.178;24.622;2023-12-14T11:27:36;98841.09;;;10.13;100.00
12203;BME280;6164;42.178;24.622;2023-12-14T11:30:12;98840.91;;;10.15;100.00
12203;BME280;6164;42.178;24.622;2023-12-14T11:32:41;98844.53;;;10.28;100.00
12203;BME280;6164;42.178;24.622;2023-12-14T11:35:08;98844.81;;;10.33;100.00
12203;BME280;6164;42.178;24.622;2023-12-14T11:37:37;98834.75;;;10.22;100.00
12203;BME280;6164;42.178;24.622;2023-12-14T11:40:04;98824.56;;;10.19;100.00
12203;BME280;6164;42.178;24.622;2023-12-14T11:42:32;98826.47;;;10.25;100.00
12203;BME280;6164;42.178;24.622;2023-12-14T11:44:59;98825.81;;;10.23;100.00
12203;BME280;6164;42.178;24.622;2023-12-14T11:47:27;98836.00;;;10.26;100.00
12203;BME280;6164;42.178;24.622;2023-12-14T11:49:54;98828.91;;;10.27;100.00
12203;BME280;6164;42.178;24.622;2023-12-14T11:52:21;98840.34;;;10.34;100.00
12203;BME280;6164;42.178;24.622;2023-12-14T11:54:48;98835.38;;;10.24;100.00
12203;BME280;6164;42.178;24.622;2023-12-14T11:57:15;98839.34;;;10.35;100.00
12203;BME280;6164;42.178;24.622;2023-12-14T11:59:42;98831.63;;;10.33;100.00
12203;BME280;6164;42.178;24.622;2023-12-14T12:02:11;98842.88;;;10.42;100.00
12203;BME280;6164;42.178;24.622;2023-12-14T12:04:39;98841.34;;;10.33;100.00
12203;BME280;6164;42.178;24.622;2023-12-14T12:07:15;98840.88;;;10.44;100.00
12203;BME280;6164;42.178;24.622;2023-12-14T12:09:43;98830.59;;;10.49;100.00
12203;BME280;6164;42.178;24.622;2023-12-14T12:12:10;98830.41;;;10.50;100.00
12203;BME280;6164;42.178;24.622;2023-12-14T12:14:38;98833.50;;;10.54;100.00
12203;BME280;6164;42.178;24.622;2023-12-14T12:17:05;98836.06;;;10.47;100.00
12203;BME280;6164;42.178;24.622;2023-12-14T12:19:32;98834.09;;;10.56;100.00
12203;BME280;6164;42.178;24.622;2023-12-14T12:22:00;98836.66;;;10.49;100.00
12203;BME280;6164;42.178;24.622;2023-12-14T12:24:27;98835.81;;;10.42;100.00
12203;BME280;6164;42.178;24.622;2023-12-14T12:26:54;98828.59;;;10.36;100.00
12203;BME280;6164;42.178;24.622;2023-12-14T12:29:20;98828.91;;;10.27;100.00
12203;BME280;6164;42.178;24.622;2023-12-14T12:31:47;98837.66;;;10.27;100.00
12203;BME280;6164;42.178;24.622;2023-12-14T12:34:14;98845.09;;;10.24;100.00
12203;BME280;6164;42.178;24.622;2023-12-14T12:36:40;98840.38;;;10.19;100.00
12203;BME280;6164;42.178;24.622;2023-12-14T12:39:09;98839.81;;;10.24;100.00
12203;BME280;6164;42.178;24.622;2023-12-14T12:41:35;98846.13;;;10.23;100.00
12203;BME280;6164;42.178;24.622;2023-12-14T12:44:03;98847.75;;;10.24;100.00
12203;BME280;6164;42.178;24.622;2023-12-14T12:46:32;98836.19;;;10.25;100.00
12203;BME280;6164;42.178;24.622;2023-12-14T12:49:00;98835.56;;;10.23;100.00
12203;BME280;6164;42.178;24.622;2023-12-14T12:51:26;98837.91;;;10.32;100.00
12203;BME280;6164;42.178;24.622;2023-12-14T12:53:53;98833.09;;;10.36;100.00
12203;BME280;6164;42.178;24.622;2023-12-14T12:56:21;98848.44;;;10.47;100.00
12203;BME280;6164;42.178;24.622;2023-12-14T12:58:48;98843.88;;;10.55;100.00